Terminal Aerodrome Forecast
Issued by NWS Cleveland, OH

Home | Current Version | Previous Version | Graphics & Text | Print | Product List | Glossary On
Versions: 1 2 3 4 5 6 7 8 9 10 11 12 13 14 15 16 17 18 19 20 21 22 23
069
FTUS41 KCLE 260312 AAA
TAFCAK
TAF AMD
KCAK 260312Z 2603/2624 24010KT P6SM BKN070 BKN150
     FM260700 22010KT P6SM -SHRA OVC050
      TEMPO 2609/2611 5SM -RA OVC050
     FM261100 24012KT P6SM OVC030
     FM261500 31012KT P6SM OVC010
     FM262100 35012KT P6SM OVC020=

USA.gov is the U.S. government's official web portal to all federal, state and local government web resources and services.